Briefing drone pour Davezieux

Rechercher une autre localisation

Conditions de vol :


Nous sommes le : Mercredi 27 octobre 2021
Il est 22:31 UTC (00:31 LT)

Lever de soleil : 05:47 UTC (07:47 LT)
Coucher de soleil : 17:02 UTC (19:02 LT)

Météo

L'essentiel des conditions de vol

VIGILANCE MÉTÉO FRANCE - Ardèche (07)
Pas de vigilances particulieres
CARTE TEMSI
CARTES DES FRONTS
METAR de LFMH
LFMH 262200Z AUTO 00000KT 9999 FEW008 OVC028 05/05 Q1026

Date d'émission: 26/10/2021
Heure d'émission: 22:00 UTC
Vent: Calme
Visibilité horizontale: > 10 km
Plafond :
- Peu de nuages à 800ft (244m)
- Couvert à 2800ft (853m)
Température: 5 °C
Point de rosée: 5 °C
Humidité: 100%
Pression (QNH): 1026 hPa
TAF de LFMH
LFMH 161901Z 1619/1712 CNL

Conditions prévues :

Heure d'émission : Bulletin éffectué le 16 à 19:00 UTC
Prévision : Valide du 16 a 19:00 UTC au 17 a 12:00 UTC
Nuages : à 0ft (0 m)
WEBCAM POUR DAVEZIEUX

Réglementation

Voler en sécurité

CARTES AERONAUTIQUE 1/500.000
CARTES VAC (LFMH)
SUP AIP




Chargement des AIP...
NOTAM (DAVEZIEUX + Terrain à proximité / FIR )




Chargement des NOTAMS...
CONTACT PREFECTURE 07


Avertissement : Les données mises à disposition sont indicatives. Oxygène Drone ne pourra être tenu responsable de dégâts causés aux biens et aux personnes.